Atlantic - Newfoundland: Past 24 Hour Conditions

 

Natashquan Airport

02:00 PM EST 06 March 2015
Disclaimer

This table is a summary of hourly weather conditions for the past 24 hours.
Please note that these observations might not always be representative of weather conditions over their associated marine area.

Date / Time
(EST)
Wind(knots) Conditions Visibility(km) Pressure(kPa) Air tempC) Relative humidity(%) Dew pointC) Wind Chill
06 March 2015
14:00 WNW 17 gust 23 Light Snow 3 101.9 -15 51 -23 -27
13:00 W 15 gust 20 Sunny 16 101.9 -16 50 -24 -27
12:00 WNW 14 gust 19 Light Snow 16 101.9 -17 48 -25 -28
11:00 WNW 12 gust 19 Sunny 16 102.0 -18 44 -27 -28
10:00 W 13 gust 19 Haze 6 102.0 -18 49 -27 -29
9:00 WNW 13 Sunny 16 102.0 -19 49 -27 -30
8:00 WNW 10 Sunny 16 102.0 -21 51 -28 -31
7:00 WNW 7 Sunny 16 102.0 -23 58 -29 -32
6:00 NW 5 Sunny 16 101.9 -25 64 -30 -33
5:00 W 8 Clear 16 101.8 -23 62 -29 -33
4:00 WNW 9 Clear 16 101.7 -24 64 -29 -35
3:00 WNW 7 Clear 16 101.7 -24 63 -29 -33
2:00 WNW 8 Clear 16 101.6 -22 60 -28 -32
1:00 W 11 Clear 16 101.6 -21 59 -27 -32
0:00 WNW 8 Clear 16 101.5 -23 61 -28 -33
05 March 2015
23:00 W 9 Clear 16 101.5 -22 60 -28 -32
22:00 WNW 11 Clear 16 101.4 -20 56 -27 -31
21:00 WNW 7 Clear 16 101.3 -19 52 -27 -28
20:00 WNW 15 Clear 16 101.2 -18 52 -26 -30
19:00 WNW 12 Mainly Clear 16 101.1 -17 52 -25 -27
18:00 NW 13 Clear 16 100.9 -16 55 -23 -27
17:00 NW 16 gust 21 Clear 16 100.7 -15 54 -22 -26
16:00 NW 14 gust 19 Sunny 16 100.5 -13 51 -21 -23
15:00 NW 18 gust 24 Light Snow 16 100.4 -12 52 -20 -23
14:00 WNW 17 gust 22 Mainly Sunny 16 100.2 -12 52 -20 -22

Zoom-in to make a selection

Map of Atlantic - Newfoundland marine weather areas Southwestern Grand Banks - 44138 Banquereau - 44139 Tail of the Bank - 44140 Nickerson Bank - 44251 Northeast Burgeo Bank - 44255 Blanc-Sablon Airport Cap Whittle Chevery Natashquan Airport Heath Point Miscou Island Grand Étang Ingonish Beach North Mountain St.Paul Island J.A. Douglas McCurdy Sydney Airport Charlottetown Airport East Point North Cape Argentia Bonavista Burgeo Cape Race Corner Brook Daniel's Harbour Englee Ferolle Point La Scie Port aux Basques Rocky Harbour Sagona Island St. Anthony Airport St. John's Int'l Airport St. Lawrence Stephenville Airport Twillingate Winterland Wreckhouse Cartwright Airport Mary's Harbour Grates Cove Pool's Island Marticot Island Long Pond Îles de la Madeleine Airport
Legend:
buoy Buoy
land station Land Station

Atlantic - Newfoundland Area

Another Region

What we are doing

Date modified: